Latest Weather Observations for Sydney Olympic Park

IDN60801

Issued at 9:05 pm EST Tuesday 16 September 2014 (issued every 30 minutes, with the page automatically refreshed every 10 minutes)

About weather observations | Map of weather stations | Latest weather observations for NSW | Other Formats
Station Details ID: 066212 Name: SYDNEY OLYMPIC PARK AWS (ARCHERY CENTRE) Lat: -33.83 Lon: 151.07 Height: 4.0 m
Data from the previous 72 hours. | See also: Recent months at Sydney Olympic Park
Date/Time
EST
Temp
°C
App
Temp
°C
Dew
Point
Rel
Hum
%
Delta-T
°C
Wind Press
QNH
hPa
Press
MSL
hPa
Rain
since 9 am
mm
Dir
 
Spd
km/h
Gust
km/h
Spd
kts
Gust
kts
16/09:00pm 17.0 14.4 7.9 55 4.6 W 11 17 6 9 - - 0.0
16/08:30pm 17.2 14.0 8.6 57 4.4 WNW 15 20 8 11 - - -
16/08:00pm 17.8 14.3 8.6 55 4.7 WNW 17 24 9 13 - - -
16/07:30pm 17.9 14.3 8.5 54 4.8 WNW 17 26 9 14 - - -
16/07:00pm 18.5 14.4 8.5 52 5.2 WNW 20 30 11 16 - - -
16/06:30pm 19.0 14.5 7.1 46 6.0 WNW 20 37 11 20 - - -
16/06:00pm 20.0 15.7 7.7 45 6.3 WNW 20 35 11 19 - - -
16/05:30pm 20.6 15.8 7.2 42 6.8 WNW 22 33 12 18 - - -
16/05:00pm 21.0 17.1 8.6 45 6.5 WNW 19 30 10 16 - - -
16/04:30pm 21.7 17.7 8.2 42 7.1 WNW 19 30 10 16 - - -
16/04:00pm 23.1 19.1 6.8 35 8.4 W 17 30 9 16 - - -
16/03:30pm 21.5 22.6 16.5 73 3.0 N 6 11 3 6 - - -
16/03:00pm 21.2 - 15.7 71 3.3 - - - - - - - -
16/02:30pm 21.2 21.0 15.7 71 3.3 E 11 15 6 8 - - 0.0
16/02:00pm 20.8 20.3 16.0 74 2.9 E 13 19 7 10 - - 0.0
16/01:30pm 21.9 22.6 16.2 70 3.4 NE 7 20 4 11 - - 0.0
16/01:00pm 21.6 21.7 14.5 64 4.2 N 7 11 4 6 - - 0.0
16/12:30pm 22.7 22.3 15.3 63 4.4 NNE 11 17 6 9 - - 0.0
16/12:00pm 21.2 21.7 15.5 70 3.4 E 7 13 4 7 - - 0.0
16/11:30am 20.6 21.4 16.4 77 2.5 ESE 7 11 4 6 - - 0.0
16/11:00am 19.5 21.1 16.0 80 2.1 WSW 2 9 1 5 - - 0.0
16/10:30am 18.6 19.2 15.8 84 1.7 W 7 17 4 9 - - 0.0
16/10:00am 18.2 18.0 14.7 80 2.0 WNW 9 15 5 8 - - 0.0
16/09:30am 19.7 20.1 16.3 81 2.0 N 9 17 5 9 - - 0.0
16/09:00am 19.5 20.2 17.1 86 1.5 E 9 17 5 9 - - 0.2
16/08:30am 16.5 16.6 15.4 93 0.6 E 9 15 5 8 - - 0.2
16/08:00am 15.7 15.6 14.9 95 0.5 SSW 9 15 5 8 - - 0.2
16/07:30am 15.8 16.9 15.5 98 0.2 SW 4 9 2 5 - - 0.2
16/07:00am 14.4 15.3 14.1 98 0.2 NW 2 7 1 4 - - 0.2
16/06:30am 13.7 14.8 13.4 98 0.2 CALM 0 0 0 0 - - 0.2
16/06:00am 13.6 14.6 13.3 98 0.2 WNW 0 0 0 0 - - 0.2
16/05:30am 14.2 14.3 13.9 98 0.2 WSW 6 11 3 6 - - 0.2
16/05:00am 14.8 13.8 14.5 98 0.2 ENE 13 22 7 12 - - 0.0
16/04:30am 13.9 13.3 13.6 98 0.2 W 9 15 5 8 - - 0.0
16/04:00am 13.3 13.1 13.0 98 0.2 WNW 6 7 3 4 - - 0.0
16/03:30am 13.0 13.8 12.7 98 0.2 CALM 0 0 0 0 - - 0.0
16/03:00am 13.0 13.5 12.7 98 0.2 WSW 2 6 1 3 - - 0.0
16/02:30am 13.5 14.5 13.2 98 0.2 CALM 0 0 0 0 - - 0.0
16/02:00am 14.0 14.7 13.5 97 0.3 E 2 7 1 4 - - 0.0
16/01:30am 14.0 15.1 13.5 97 0.3 CALM 0 0 0 0 - - 0.0
16/01:00am 15.2 15.2 14.1 93 0.6 NNE 7 11 4 6 - - 0.0
16/12:30am 15.4 15.1 14.4 94 0.6 E 9 13 5 7 - - 0.0
16/12:00am 15.3 15.6 14.5 95 0.5 NNW 6 9 3 5 - - 0.0
 
Date/Time
EST
Temp
°C
App
Temp
°C
Dew
Point
Rel
Hum
%
Delta-T
°C
Wind Press
QNH
hPa
Press
MSL
hPa
Rain
since 9 am
mm
Dir
 
Spd
km/h
Gust
km/h
Spd
kts
Gust
kts
15/11:30pm 14.5 15.8 14.0 97 0.3 CALM 0 0 0 0 - - 0.0
15/11:00pm 14.4 15.3 13.9 97 0.3 NNE 2 7 1 4 - - 0.0
15/10:30pm 14.5 15.8 14.0 97 0.3 CALM 0 0 0 0 - - 0.0
15/10:00pm 14.6 15.4 13.6 94 0.6 N 2 6 1 3 - - 0.0
15/09:30pm 14.8 15.0 13.2 90 0.9 WNW 4 7 2 4 - - 0.0
15/09:00pm 15.3 15.6 13.3 88 1.1 NW 4 7 2 4 - - 0.0
15/08:30pm 16.0 16.2 13.1 83 1.6 E 4 7 2 4 - - 0.0
15/08:00pm 16.6 16.3 13.3 81 1.8 E 7 11 4 6 - - 0.0
15/07:30pm 16.9 16.2 13.2 79 2.1 E 9 17 5 9 - - 0.0
15/07:00pm 17.0 16.3 13.1 78 2.2 E 9 20 5 11 - - 0.0
15/06:30pm 17.3 16.5 13.0 76 2.4 E 9 15 5 8 - - 0.0
15/06:00pm 17.6 16.3 12.5 72 2.8 E 11 19 6 10 - - 0.0
15/05:30pm 18.0 16.3 12.5 70 3.1 ENE 13 20 7 11 - - 0.0
15/05:00pm 18.5 17.2 12.5 68 3.3 ENE 11 24 6 13 - - 0.0
15/04:30pm 18.9 16.4 12.2 65 3.7 E 17 26 9 14 - - 0.0
15/04:00pm 19.3 16.7 12.1 63 4.0 E 17 24 9 13 - - 0.0
15/03:30pm 19.7 17.6 12.5 63 4.0 ENE 15 24 8 13 - - 0.0
15/03:00pm 19.9 17.4 12.4 62 4.2 E 17 30 9 16 - - 0.0
15/02:30pm 20.0 17.7 13.0 64 4.0 E 17 24 9 13 - - 0.0
15/02:00pm 20.2 18.2 12.7 62 4.2 E 15 26 8 14 - - 0.0
15/01:30pm 20.7 18.5 13.2 62 4.3 E 17 26 9 14 - - 0.0
15/01:00pm 21.1 19.6 12.0 56 5.1 ENE 11 17 6 9 - - 0.0
15/12:30pm 21.5 21.0 13.7 61 4.5 E 9 15 5 8 - - 0.0
15/12:00pm 20.6 19.5 9.8 50 5.8 NNE 6 11 3 6 - - 0.0
15/11:30am 20.6 19.6 11.0 54 5.3 N 7 13 4 7 - - 0.0
15/11:00am 20.1 19.8 13.3 65 3.9 ESE 7 11 4 6 - - 0.0
15/10:30am 19.0 18.0 12.3 65 3.7 E 9 13 5 7 - - 0.0
15/10:00am 19.5 20.0 14.1 71 3.1 WNW 4 7 2 4 - - 0.0
15/09:30am 17.6 17.2 12.9 74 2.6 NW 7 11 4 6 - - 0.0
15/09:00am 18.0 18.2 14.1 78 2.2 NW 6 11 3 6 - - 0.0
15/08:30am 17.2 17.6 14.7 85 1.4 NW 6 11 3 6 - - 0.0
15/08:00am 15.7 15.0 14.2 91 0.9 NW 11 15 6 8 - - 0.0
15/07:30am 14.2 14.1 13.9 98 0.2 WNW 7 9 4 5 - - 0.0
15/07:02am 12.9 12.0 12.6 98 0.2 NW 9 13 5 7 - - 0.0
15/07:00am 12.9 12.0 12.6 98 0.2 NW 9 13 5 7 - - 0.0
15/06:34am 12.2 11.1 11.9 98 0.2 NW 9 13 5 7 - - 0.0
15/06:30am 12.1 11.0 11.8 98 0.2 NW 9 13 5 7 - - 0.0
15/06:00am 11.6 11.6 11.3 98 0.2 WNW 2 7 1 4 - - 0.0
15/05:30am 12.4 13.1 12.1 98 0.2 CALM 0 0 0 0 - - 0.0
15/05:00am 12.3 12.9 12.0 98 0.2 CALM 0 0 0 0 - - 0.0
15/04:30am 12.4 13.1 12.1 98 0.2 CALM 0 6 0 3 - - 0.0
15/04:00am 12.6 13.3 12.3 98 0.2 CALM 0 0 0 0 - - 0.0
15/03:30am 12.9 13.7 12.6 98 0.2 CALM 0 0 0 0 - - 0.0
15/03:00am 12.7 13.5 12.4 98 0.2 CALM 0 0 0 0 - - 0.0
15/02:30am 13.4 14.3 12.9 97 0.3 CALM 0 0 0 0 - - 0.0
15/02:00am 14.4 15.2 13.6 95 0.4 WSW 2 9 1 5 - - 0.0
15/01:30am 14.8 14.7 13.8 94 0.6 WSW 7 11 4 6 - - 0.0
15/01:00am 14.7 14.8 13.9 95 0.4 W 6 9 3 5 - - 0.0
15/12:30am 14.8 15.0 14.2 96 0.3 WSW 6 9 3 5 - - 0.0
15/12:00am 14.5 14.7 14.2 98 0.2 W 6 11 3 6 - - 0.0
 
Date/Time
EST
Temp
°C
App
Temp
°C
Dew
Point
Rel
Hum
%
Delta-T
°C
Wind Press
QNH
hPa
Press
MSL
hPa
Rain
since 9 am
mm
Dir
 
Spd
km/h
Gust
km/h
Spd
kts
Gust
kts
14/11:30pm 14.0 14.4 13.7 98 0.2 W 4 6 2 3 - - 0.0
14/11:00pm 14.1 15.3 13.8 98 0.2 CALM 0 6 0 3 - - 0.0
14/10:30pm 13.6 14.6 13.1 97 0.3 CALM 0 0 0 0 - - 0.0
14/10:00pm 13.7 14.7 13.1 96 0.3 CALM 0 0 0 0 - - 0.0
14/09:30pm 14.5 15.5 13.2 92 0.7 CALM 0 6 0 3 - - 0.0
14/09:00pm 15.8 16.0 14.2 90 0.9 S 6 7 3 4 - - 0.0
14/08:30pm 16.3 16.0 14.3 88 1.1 SSE 9 13 5 7 - - 0.0
14/08:00pm 16.6 15.4 14.1 85 1.4 SSE 13 20 7 11 - - 0.0
14/07:30pm 16.7 16.1 14.5 87 1.3 SSE 11 17 6 9 - - 0.0
14/07:00pm 16.6 15.5 14.4 87 1.3 SSE 13 20 7 11 - - 0.0
14/06:30pm 16.7 15.2 14.2 85 1.4 SE 15 26 8 14 - - 0.0
14/06:00pm 16.9 14.7 13.2 79 2.1 SE 17 24 9 13 - - 0.0
14/05:30pm 17.3 14.8 13.6 79 2.1 SE 19 28 10 15 - - 0.0
14/05:00pm 18.1 15.8 14.0 77 2.3 SSE 19 28 10 15 - - 0.0
14/04:30pm 19.0 16.9 15.3 79 2.2 SE 20 32 11 17 - - 0.0
14/04:00pm 20.3 17.9 14.4 69 3.4 SSE 20 30 11 16 - - 0.0
14/03:30pm 21.5 19.3 14.4 64 4.2 E 19 26 10 14 - - 0.0
14/03:00pm 22.6 20.3 14.7 61 4.7 ESE 20 28 11 15 - - 0.0
14/02:30pm 24.4 21.6 7.1 33 9.0 S 11 17 6 9 - - 0.0
14/02:00pm 24.5 23.1 8.9 37 8.4 NNE 6 11 3 6 - - 0.0
14/01:30pm 23.9 22.0 9.1 39 8.0 S 9 17 5 9 - - 0.0
14/01:00pm 23.8 22.5 9.8 41 7.6 W 7 13 4 7 - - 0.0
14/12:30pm 23.6 22.4 11.6 47 6.8 NW 9 15 5 8 - - 0.0
14/12:00pm 23.0 21.0 10.1 44 7.0 NW 11 17 6 9 - - 0.0
14/11:30am 22.6 21.5 12.0 51 6.0 WNW 9 19 5 10 - - 0.0
14/11:00am 22.2 22.2 15.3 65 4.1 WNW 9 13 5 7 - - 0.0
14/10:30am 21.0 22.2 16.0 73 3.0 NW 4 13 2 7 - - 0.0
14/10:00am 19.1 19.2 14.4 74 2.7 W 7 13 4 7 - - 0.0
14/09:30am 17.5 17.1 14.2 81 1.9 W 9 13 5 7 - - 0.0
14/09:00am 16.5 16.2 14.5 88 1.1 WNW 9 13 5 7 - - 1.4
14/08:30am 15.8 15.2 14.7 93 0.6 NW 11 15 6 8 - - 1.4
14/08:00am 14.8 14.2 14.5 98 0.2 WNW 11 15 6 8 - - 1.4
14/07:30am 13.0 13.5 12.7 98 0.2 NW 2 9 1 5 - - 1.4
14/07:00am 11.4 11.8 11.1 98 0.2 CALM 0 2 0 1 - - 1.4
14/06:54am 11.0 11.2 10.7 98 0.2 CALM 0 0 0 0 - - 1.4
14/06:30am 10.2 10.2 9.9 98 0.2 CALM 0 0 0 0 - - 1.4
14/06:28am 10.3 10.4 10.0 98 0.2 CALM 0 0 0 0 - - 1.4
14/06:00am 10.1 10.1 9.8 98 0.2 CALM 0 0 0 0 - - 1.4
14/05:30am 10.3 10.4 10.0 98 0.2 CALM 0 0 0 0 - - 1.4
14/05:00am 10.7 10.9 10.4 98 0.2 CALM 0 0 0 0 - - 1.4
14/04:51am 10.5 10.6 10.2 98 0.2 CALM 0 0 0 0 - - 1.4
14/04:37am 10.7 10.9 10.4 98 0.2 CALM 0 0 0 0 - - 1.4
14/04:30am 10.7 10.9 10.4 98 0.2 CALM 0 0 0 0 - - 1.4
14/04:00am 11.1 11.4 10.8 98 0.2 CALM 0 0 0 0 - - 1.4
14/03:30am 11.4 11.8 11.1 98 0.2 CALM 0 0 0 0 - - 1.4
14/03:00am 11.9 12.4 11.6 98 0.2 CALM 0 0 0 0 - - 1.4
14/02:30am 12.5 13.2 12.2 98 0.2 CALM 0 0 0 0 - - 1.4
14/02:00am 12.9 12.6 12.6 98 0.2 NW 6 7 3 4 - - 1.4
14/01:30am 13.4 13.2 13.1 98 0.2 WNW 6 7 3 4 - - 1.4
14/01:00am 14.4 15.7 14.1 98 0.2 CALM 0 0 0 0 - - 1.4
14/12:30am 14.7 16.1 14.4 98 0.2 CALM 0 6 0 3 - - 1.4
14/12:00am 14.4 15.7 14.1 98 0.2 CALM 0 0 0 0 - - 1.4
 
Date/Time
EST
Temp
°C
App
Temp
°C
Dew
Point
Rel
Hum
%
Delta-T
°C
Wind Press
QNH
hPa
Press
MSL
hPa
Rain
since 9 am
mm
Dir
 
Spd
km/h
Gust
km/h
Spd
kts
Gust
kts
13/11:30pm 14.4 15.7 14.1 98 0.2 CALM 0 0 0 0 - - 1.4
13/11:00pm 14.5 15.5 14.2 98 0.2 W 2 7 1 4 - - 1.4
13/10:30pm 14.6 16.0 14.3 98 0.2 CALM 0 0 0 0 - - 1.4
13/10:00pm 14.2 15.4 13.9 98 0.2 CALM 0 0 0 0 - - 1.4
13/09:30pm 13.9 15.0 13.4 97 0.3 CALM 0 0 0 0 - - 1.4

Other Formats:

Comma delimited format used in spreadsheet applications
http://www.bom.gov.au/fwo/IDN60801/IDN60801.95765.axf

JavaScript Object Notation format (JSON) in row-major order
http://www.bom.gov.au/fwo/IDN60801/IDN60801.95765.json